Time;durP1;ratioP1;P1;durP2;ratioP2;P2;SDS_P1;SDS_P2;PMS_P1;PMS_P2;Temp;Humidity;BMP_temperature;BMP_pressure;BME280_temperature;BME280_humidity;BME280_pressure;Samples;Min_cycle;Max_cycle;Signal;HPM_P1;HPM_P2
2022/06/05 00:00:32;;;;;;;9.23;7.82;;;;;;;27.44;55.88;99450.09;5071212;28;20020;-83
2022/06/05 00:02:57;;;;;;;9.27;7.90;;;;;;;27.43;56.44;99445.72;5077921;28;20076;-80
2022/06/05 00:05:23;;;;;;;9.48;7.63;;;;;;;27.42;56.64;99441.34;5042429;28;20074;-80
2022/06/05 00:08:17;;;;;;;8.77;7.78;;;;;;;27.41;56.47;99429.78;5057235;28;20055;-79
2022/06/05 00:10:58;;;;;;;9.25;8.25;;;;;;;27.40;55.72;99428.09;5039442;28;20058;-79
2022/06/05 00:13:54;;;;;;;8.32;7.40;;;;;;;27.39;56.55;99415.69;5039300;28;20036;-80
2022/06/05 00:16:24;;;;;;;8.80;7.57;;;;;;;27.40;55.79;99419.22;5053672;28;20032;-82
2022/06/05 00:18:50;;;;;;;9.27;7.53;;;;;;;27.40;56.57;99425.41;5039273;28;20351;-81
2022/06/05 00:21:16;;;;;;;10.65;7.70;;;;;;;27.38;56.00;99408.63;5058887;28;20035;-80
2022/06/05 00:23:42;;;;;;;10.13;7.80;;;;;;;27.39;56.58;99425.53;5057570;28;20425;-80
2022/06/05 00:26:40;;;;;;;9.93;8.13;;;;;;;27.38;55.98;99402.41;5057414;28;20102;-79
2022/06/05 00:29:27;;;;;;;8.52;7.47;;;;;;;27.36;56.00;99399.03;5006228;28;20367;-81
2022/06/05 00:32:09;;;;;;;10.65;7.78;;;;;;;27.36;56.62;99388.31;5039413;28;20033;-79
2022/06/05 00:34:34;;;;;;;8.85;7.35;;;;;;;27.36;56.25;99401.72;5039597;28;20488;-82
2022/06/05 00:37:17;;;;;;;9.73;7.40;;;;;;;27.34;56.23;99394.66;5040543;28;20037;-81
2022/06/05 00:39:56;;;;;;;8.23;7.38;;;;;;;27.33;55.89;99406.38;5058604;28;20029;-81
2022/06/05 00:42:26;;;;;;;9.98;7.95;;;;;;;27.33;56.12;99403.69;5039264;28;20025;-79
2022/06/05 00:44:57;;;;;;;8.45;7.05;;;;;;;27.33;56.02;99401.03;5041632;28;20398;-83
2022/06/05 00:47:30;;;;;;;8.63;7.50;;;;;;;27.32;56.15;99399.31;5039250;28;20029;-79
2022/06/05 00:50:04;;;;;;;9.35;7.63;;;;;;;27.30;56.14;99406.63;5038817;28;20028;-79
2022/06/05 00:52:33;;;;;;;8.45;7.32;;;;;;;27.30;56.33;99400.41;5038803;28;20056;-80
2022/06/05 00:54:59;;;;;;;9.30;6.90;;;;;;;27.27;56.10;99409.59;5038811;28;20029;-80
2022/06/05 00:57:30;;;;;;;8.32;7.03;;;;;;;27.26;56.37;99413.25;5056340;28;20055;-80
2022/06/05 00:59:59;;;;;;;8.10;6.80;;;;;;;27.26;56.08;99407.06;5056305;28;20025;-81
2022/06/05 01:02:25;;;;;;;7.47;6.13;;;;;;;27.24;55.99;99414.34;5043938;28;20056;-81
2022/06/05 01:04:51;;;;;;;9.75;7.28;;;;;;;27.23;56.12;99410.84;5059925;28;20128;-80
2022/06/05 01:07:19;;;;;;;8.48;6.88;;;;;;;27.23;55.97;99418.88;5078924;28;20033;-80
2022/06/05 01:09:47;;;;;;;8.38;6.53;;;;;;;27.22;56.47;99422.56;5079192;28;20535;-82
2022/06/05 01:12:31;;;;;;;11.05;7.13;;;;;;;27.21;56.44;99434.22;5079506;28;20024;-80
2022/06/05 01:15:22;;;;;;;10.88;6.85;;;;;;;27.21;56.21;99434.22;5081228;28;20070;-81
2022/06/05 01:18:08;;;;;;;9.63;7.00;;;;;;;27.19;56.29;99426.34;5063564;28;20032;-79
2022/06/05 01:21:05;;;;;;;7.40;6.40;;;;;;;27.19;55.95;99431.72;5064784;28;20029;-80
2022/06/05 01:24:12;;;;;;;9.52;6.93;;;;;;;27.19;56.56;99433.53;5054401;28;20103;-82
2022/06/05 01:26:49;;;;;;;7.28;6.00;;;;;;;27.18;56.58;99434.50;4985549;28;20096;-82
2022/06/05 01:29:41;;;;;;;9.50;6.53;;;;;;;27.16;56.35;99431.13;5056627;28;20473;-83
2022/06/05 01:32:14;;;;;;;9.13;6.10;;;;;;;27.15;56.18;99419.56;5069516;28;20041;-84
2022/06/05 01:34:47;;;;;;;7.60;6.00;;;;;;;27.17;55.97;99422.09;5082709;28;20025;-84
2022/06/05 01:37:25;;;;;;;7.50;5.40;;;;;;;27.15;56.25;99424.91;5083240;28;20093;-82
2022/06/05 01:40:02;;;;;;;6.28;5.55;;;;;;;27.13;56.06;99426.91;5080443;28;20021;-80
2022/06/05 01:42:33;;;;;;;7.18;5.82;;;;;;;27.14;55.82;99423.22;5076605;28;20024;-80
2022/06/05 01:45:08;;;;;;;6.63;5.15;;;;;;;27.15;55.79;99434.78;5076338;28;20028;-81
2022/06/05 01:47:38;;;;;;;7.55;5.28;;;;;;;27.13;55.76;99431.38;5061018;28;20028;-82
2022/06/05 01:50:16;;;;;;;6.00;5.10;;;;;;;27.12;56.07;99435.06;5058435;28;20461;-81
2022/06/05 01:52:56;;;;;;;6.15;4.88;;;;;;;27.11;55.89;99438.72;5057523;28;20171;-80
2022/06/05 01:55:37;;;;;;;6.68;5.00;;;;;;;27.10;55.62;99426.31;5057470;28;20024;-81
2022/06/05 01:58:07;;;;;;;5.88;4.63;;;;;;;27.10;55.83;99434.34;5057882;28;20535;-80
2022/06/05 02:00:33;;;;;;;5.82;4.78;;;;;;;27.09;55.93;99441.53;5057949;28;20021;-82
2022/06/05 02:03:11;;;;;;;6.57;4.60;;;;;;;27.07;55.80;99444.31;5064894;28;20565;-81
2022/06/05 02:05:45;;;;;;;6.85;4.85;;;;;;;27.06;55.47;99448.00;5045419;28;20107;-84
2022/06/05 02:08:16;;;;;;;6.88;4.70;;;;;;;27.05;55.62;99446.31;5065083;28;20021;-81
2022/06/05 02:10:48;;;;;;;8.35;4.50;;;;;;;27.04;55.95;99447.28;5056938;28;20484;-80
2022/06/05 02:13:15;;;;;;;6.35;4.28;;;;;;;27.03;55.64;99448.25;5036759;28;20039;-79
2022/06/05 02:15:40;;;;;;;7.57;4.60;;;;;;;27.02;55.82;99457.28;5037369;28;20028;-81
2022/06/05 02:18:06;;;;;;;6.07;4.30;;;;;;;26.99;55.50;99452.19;5037349;28;20033;-81
2022/06/05 02:20:32;;;;;;;6.10;4.30;;;;;;;26.99;55.83;99460.22;5037449;28;20032;-80
2022/06/05 02:22:58;;;;;;;6.40;4.10;;;;;;;26.99;55.43;99457.56;5039886;28;20090;-82
2022/06/05 02:25:26;;;;;;;5.63;3.97;;;;;;;26.98;55.56;99460.34;5054798;28;20063;-82
2022/06/05 02:27:59;;;;;;;5.82;4.25;;;;;;;26.99;55.34;99465.59;5054905;28;20454;-80
2022/06/05 02:30:30;;;;;;;5.43;3.70;;;;;;;26.97;55.44;99469.38;5056904;28;20512;-80
2022/06/05 02:33:13;;;;;;;5.47;3.90;;;;;;;26.96;55.33;99465.84;5054851;28;20336;-79
2022/06/05 02:36:00;;;;;;;5.53;3.50;;;;;;;26.94;55.44;99470.47;5037178;28;20033;-81
2022/06/05 02:38:32;;;;;;;5.28;3.47;;;;;;;26.93;55.50;99471.47;5054856;28;20073;-81
2022/06/05 02:41:32;;;;;;;4.68;2.90;;;;;;;26.93;55.53;99455.41;5037236;28;20025;-81
2022/06/05 02:44:31;;;;;;;4.82;3.20;;;;;;;26.92;54.98;99462.59;5011866;28;20075;-80
2022/06/05 02:47:19;;;;;;;5.93;2.88;;;;;;;26.92;55.03;99461.75;5054961;28;20025;-81
2022/06/05 02:49:44;;;;;;;4.35;3.10;;;;;;;26.91;55.13;99466.25;5037235;28;20064;-81
2022/06/05 02:52:10;;;;;;;5.80;3.28;;;;;;;26.89;54.75;99473.53;5037586;28;20052;-80
2022/06/05 02:54:45;;;;;;;3.67;2.78;;;;;;;26.91;54.84;99466.25;5054887;28;20408;-80
2022/06/05 02:57:10;;;;;;;4.38;2.75;;;;;;;26.89;54.99;99470.00;5037958;28;20032;-81
2022/06/05 02:59:36;;;;;;;4.43;3.10;;;;;;;26.89;54.66;99473.53;5037902;28;20033;-80
2022/06/05 03:04:53;;;;;;;5.47;2.95;;;;;;;26.87;54.58;99480.00;5075462;28;20036;-81
2022/06/05 03:07:19;;;;;;;4.85;3.10;;;;;;;26.86;54.31;99484.50;5076038;28;20024;-79
2022/06/05 03:09:44;;;;;;;4.95;2.72;;;;;;;26.86;54.52;99483.63;5075419;28;20024;-80
2022/06/05 03:12:11;;;;;;;4.45;2.50;;;;;;;26.83;54.45;99484.78;5057540;28;20036;-80
2022/06/05 03:14:36;;;;;;;4.70;2.67;;;;;;;26.85;54.57;99479.25;5059536;28;20024;-83
2022/06/05 03:17:02;;;;;;;4.53;2.78;;;;;;;26.84;54.44;99469.53;5076454;28;20035;-84
2022/06/05 03:19:27;;;;;;;4.05;2.58;;;;;;;26.81;54.29;99474.19;5058777;28;20046;-80
2022/06/05 03:21:53;;;;;;;4.35;2.65;;;;;;;26.81;54.35;99476.00;5077678;28;20016;-80
2022/06/05 03:24:19;;;;;;;4.68;2.58;;;;;;;26.80;54.35;99475.19;5059652;28;20074;-81
2022/06/05 03:26:45;;;;;;;5.05;2.60;;;;;;;26.78;54.52;99476.28;5063377;28;20020;-83
2022/06/05 03:29:11;;;;;;;4.57;2.10;;;;;;;26.78;54.60;99478.97;5080760;28;20021;-80
2022/06/05 03:31:37;;;;;;;3.47;2.20;;;;;;;26.76;54.51;99479.09;5063396;28;20025;-83
2022/06/05 03:34:03;;;;;;;3.25;2.17;;;;;;;26.77;54.31;99485.28;5082202;28;20025;-82
2022/06/05 03:36:29;;;;;;;4.63;2.55;;;;;;;26.76;54.56;99488.94;5063146;28;20082;-80
2022/06/05 03:38:55;;;;;;;3.33;2.47;;;;;;;26.75;54.38;99485.44;5062480;28;20034;-82
2022/06/05 03:41:21;;;;;;;4.07;2.42;;;;;;;26.75;54.68;99501.50;5080903;28;20016;-81
2022/06/05 03:43:47;;;;;;;3.90;2.33;;;;;;;26.74;54.44;99491.75;5065211;28;20029;-81
2022/06/05 03:46:14;;;;;;;3.28;2.00;;;;;;;26.74;53.96;99506.97;5083231;28;20021;-80
2022/06/05 03:48:40;;;;;;;4.22;2.58;;;;;;;26.72;54.34;99512.44;5065332;28;20089;-83
2022/06/05 03:51:08;;;;;;;3.03;1.95;;;;;;;26.71;54.27;99508.06;5081689;28;20450;-83
2022/06/05 03:53:34;;;;;;;3.47;2.20;;;;;;;26.70;54.08;99506.38;5081560;28;20024;-83
2022/06/05 03:55:59;;;;;;;3.38;2.17;;;;;;;26.70;53.92;99510.88;5083694;28;20031;-84
2022/06/05 03:58:25;;;;;;;4.57;2.60;;;;;;;26.69;53.96;99520.75;5063640;28;20024;-84
2022/06/05 04:00:53;;;;;;;3.78;2.30;;;;;;;26.69;53.84;99531.44;5081186;28;20031;-82
2022/06/05 04:03:19;;;;;;;4.18;2.25;;;;;;;26.67;54.10;99523.53;5060001;28;20049;-82
2022/06/05 04:05:44;;;;;;;3.45;2.08;;;;;;;26.66;54.11;99524.53;5060997;28;20034;-80
2022/06/05 04:08:14;;;;;;;3.03;2.28;;;;;;;26.64;54.09;99523.78;5061607;28;20024;-80
2022/06/05 04:10:41;;;;;;;3.00;1.85;;;;;;;26.65;54.21;99530.00;5062188;28;20029;-81
2022/06/05 04:13:07;;;;;;;4.15;2.25;;;;;;;26.64;54.07;99528.31;5090538;28;20032;-83
2022/06/05 04:15:40;;;;;;;2.97;1.90;;;;;;;26.63;54.21;99535.47;5085248;28;20032;-80
2022/06/05 04:18:07;;;;;;;3.17;2.17;;;;;;;26.63;53.98;99548.03;5077241;28;20090;-80
2022/06/05 04:20:34;;;;;;;3.38;2.28;;;;;;;26.63;53.89;99553.38;5077535;28;20028;-80
2022/06/05 04:23:00;;;;;;;4.15;2.00;;;;;;;26.63;54.28;99548.84;5059587;28;20028;-80
2022/06/05 04:25:26;;;;;;;3.85;2.35;;;;;;;26.61;53.93;99549.97;5059421;28;20082;-82
2022/06/05 04:27:51;;;;;;;3.55;2.00;;;;;;;26.59;54.06;99557.28;5059449;28;20136;-80
2022/06/05 04:30:18;;;;;;;6.10;2.80;;;;;;;26.60;53.92;99561.66;5076758;28;20036;-82
2022/06/05 04:32:43;;;;;;;3.50;2.35;;;;;;;26.59;54.11;99563.50;5059296;28;20028;-82
2022/06/05 04:35:09;;;;;;;4.05;2.65;;;;;;;26.58;53.92;99574.31;5059187;28;20050;-80
2022/06/05 04:37:35;;;;;;;3.80;2.35;;;;;;;26.58;54.05;99574.31;5060789;28;20090;-80
2022/06/05 04:40:01;;;;;;;3.97;2.45;;;;;;;26.57;53.76;99580.66;5059365;28;20028;-81
2022/06/05 04:42:26;;;;;;;3.17;2.10;;;;;;;26.56;53.82;99592.31;5059144;28;20028;-80
2022/06/05 04:44:52;;;;;;;2.45;1.80;;;;;;;26.54;53.71;99590.63;5059256;28;20029;-80
2022/06/05 04:47:17;;;;;;;2.70;1.83;;;;;;;26.52;54.02;99589.91;5076772;28;20040;-81
2022/06/05 04:49:43;;;;;;;4.53;1.85;;;;;;;26.52;53.58;99595.25;5058820;28;20028;-80
2022/06/05 04:52:08;;;;;;;3.17;1.98;;;;;;;26.52;53.84;99589.03;5076834;28;20024;-81
2022/06/05 04:54:34;;;;;;;3.10;2.00;;;;;;;26.51;54.01;99596.22;5059044;28;20058;-81
2022/06/05 04:57:00;;;;;;;3.53;1.98;;;;;;;26.52;53.79;99605.97;5059195;28;20358;-80
2022/06/05 04:59:25;;;;;;;4.90;2.15;;;;;;;26.50;53.99;99610.59;5058928;28;20366;-80
2022/06/05 05:01:51;;;;;;;4.25;2.45;;;;;;;26.51;53.93;99609.63;5076372;28;20013;-81
2022/06/05 05:04:16;;;;;;;3.17;1.92;;;;;;;26.50;53.54;99602.56;5059095;28;20039;-81
2022/06/05 05:06:43;;;;;;;4.05;1.73;;;;;;;26.50;53.97;99613.28;5076951;28;20036;-81
2022/06/05 05:09:10;;;;;;;3.55;2.30;;;;;;;26.50;53.86;99613.28;5076682;28;20036;-81
2022/06/05 05:11:36;;;;;;;4.97;2.45;;;;;;;26.48;53.89;99609.84;5077525;28;20060;-82
2022/06/05 05:14:03;;;;;;;3.15;2.10;;;;;;;26.48;53.54;99615.19;5059809;28;20066;-82
2022/06/05 05:16:30;;;;;;;2.75;1.77;;;;;;;26.46;53.94;99616.31;5076410;28;20461;-82
2022/06/05 05:18:56;;;;;;;4.00;2.08;;;;;;;26.45;53.79;99612.78;5060899;28;20052;-80
2022/06/05 05:21:24;;;;;;;2.83;1.90;;;;;;;26.47;53.68;99620.69;5058868;28;20424;-81
2022/06/05 05:23:50;;;;;;;4.60;1.70;;;;;;;26.47;53.76;99628.69;5059071;28;20101;-80
2022/06/05 05:26:24;;;;;;;3.38;2.00;;;;;;;26.44;53.62;99621.78;5059228;28;20024;-80
2022/06/05 05:28:50;;;;;;;2.55;1.65;;;;;;;26.44;53.51;99629.78;5058675;28;20037;-81
2022/06/05 05:31:25;;;;;;;2.22;1.50;;;;;;;26.43;53.66;99636.13;5076082;28;20032;-82
2022/06/05 05:33:52;;;;;;;3.75;1.80;;;;;;;26.44;53.81;99629.78;5077214;28;20079;-80
2022/06/05 05:36:20;;;;;;;2.10;1.55;;;;;;;26.42;53.80;99631.75;5059343;28;20113;-80
2022/06/05 05:44:15;;;;;;;4.43;2.00;;;;;;;26.41;53.48;99635.41;5078120;28;20109;-82
2022/06/05 05:46:42;;;;;;;3.78;1.88;;;;;;;26.40;53.58;99634.56;5059870;28;20123;-82
2022/06/05 05:49:08;;;;;;;2.85;1.83;;;;;;;26.40;53.65;99639.06;5060730;28;20109;-83
2022/06/05 05:51:34;;;;;;;2.28;1.40;;;;;;;26.40;53.79;99639.06;5075108;28;20028;-81
2022/06/05 05:54:00;;;;;;;2.95;1.67;;;;;;;26.39;53.74;99640.88;5057684;28;20025;-84
2022/06/05 05:56:26;;;;;;;3.60;1.73;;;;;;;26.39;53.40;99643.56;5057687;28;20028;-82
2022/06/05 05:58:51;;;;;;;3.63;1.60;;;;;;;26.38;53.75;99651.69;5058372;28;20111;-81
2022/06/05 06:01:17;;;;;;;3.15;1.50;;;;;;;26.38;53.55;99657.91;5062813;28;20028;-81
2022/06/05 06:03:42;;;;;;;3.28;2.08;;;;;;;26.38;53.47;99651.69;5061732;28;20071;-84
2022/06/05 06:06:08;;;;;;;4.72;2.00;;;;;;;26.36;53.44;99659.00;5061787;28;20032;-82
2022/06/05 06:08:33;;;;;;;3.35;1.60;;;;;;;26.37;53.69;99655.34;5079740;28;20446;-82
2022/06/05 06:10:59;;;;;;;4.13;1.67;;;;;;;26.39;53.85;99659.59;5062605;28;20380;-83
2022/06/05 06:13:25;;;;;;;2.38;1.58;;;;;;;26.36;53.44;99654.53;5064895;28;20038;-83
2022/06/05 06:15:50;;;;;;;3.53;1.67;;;;;;;26.37;53.56;99658.91;5064939;28;20036;-85
2022/06/05 06:18:17;;;;;;;3.50;1.90;;;;;;;26.38;53.35;99665.06;5066012;28;20104;-85
2022/06/05 06:20:43;;;;;;;4.18;2.00;;;;;;;26.38;53.62;99673.09;5067238;28;20031;-82
2022/06/05 06:23:09;;;;;;;3.20;1.50;;;;;;;26.37;53.71;99682.09;5058374;28;20029;-80
2022/06/05 06:25:37;;;;;;;2.88;1.95;;;;;;;26.38;53.58;99683.81;5076201;28;20468;-80
2022/06/05 06:28:02;;;;;;;3.22;1.58;;;;;;;26.38;53.37;99683.81;5075860;28;20024;-81
2022/06/05 06:30:28;;;;;;;3.38;2.05;;;;;;;26.35;53.40;99678.72;5058197;28;20378;-80
2022/06/05 06:32:54;;;;;;;3.78;1.77;;;;;;;26.33;53.64;99680.69;5059531;28;20039;-83
2022/06/05 06:35:20;;;;;;;2.63;1.58;;;;;;;26.34;53.52;99682.38;5059576;28;20111;-85
2022/06/05 06:37:45;;;;;;;3.45;1.88;;;;;;;26.36;53.77;99680.41;5077005;28;20032;-86
2022/06/05 06:40:11;;;;;;;3.65;1.90;;;;;;;26.37;53.79;99687.47;5060033;28;20021;-81
2022/06/05 06:42:38;;;;;;;3.47;1.90;;;;;;;26.36;53.71;99685.75;5062633;28;20024;-81
2022/06/05 06:45:05;;;;;;;3.47;1.70;;;;;;;26.37;53.70;99698.16;5060629;28;20036;-81
2022/06/05 06:47:30;;;;;;;2.95;1.88;;;;;;;26.35;53.31;99689.41;5060931;28;20021;-82
2022/06/05 06:49:56;;;;;;;4.32;1.80;;;;;;;26.35;53.76;99695.59;5058796;28;20035;-81
2022/06/05 06:52:21;;;;;;;5.45;1.98;;;;;;;26.36;54.01;99696.47;5074859;28;20021;-83
2022/06/05 06:54:48;;;;;;;6.35;2.13;;;;;;;26.35;53.81;99700.13;5057257;28;20043;-82
2022/06/05 06:57:14;;;;;;;5.10;2.08;;;;;;;26.34;53.66;99704.59;5057502;28;20028;-81
2022/06/05 06:59:39;;;;;;;3.67;1.98;;;;;;;26.34;53.79;99693.06;5075777;28;20085;-81
2022/06/05 07:02:05;;;;;;;4.78;2.00;;;;;;;26.34;53.59;99698.41;5061201;28;20061;-81
2022/06/05 07:04:31;;;;;;;3.35;1.60;;;;;;;26.32;53.71;99706.56;5079112;28;20031;-80
2022/06/05 07:06:56;;;;;;;4.97;2.00;;;;;;;26.32;53.60;99709.25;5079301;28;20024;-81
2022/06/05 07:09:22;;;;;;;4.80;2.20;;;;;;;26.32;53.66;99706.56;5061138;28;20106;-81
2022/06/05 07:11:48;;;;;;;4.22;1.90;;;;;;;26.33;53.88;99713.59;5061016;28;20093;-81
2022/06/05 07:14:16;;;;;;;5.15;2.08;;;;;;;26.33;53.73;99710.94;5060725;28;20032;-82
2022/06/05 07:16:42;;;;;;;4.20;2.15;;;;;;;26.34;53.62;99711.81;5078662;28;20048;-81
2022/06/05 07:19:08;;;;;;;5.30;2.00;;;;;;;26.35;53.94;99722.34;5061053;28;20056;-82
2022/06/05 07:21:34;;;;;;;3.85;2.20;;;;;;;26.33;53.94;99712.78;5061708;28;20374;-80
2022/06/05 07:24:00;;;;;;;4.35;2.05;;;;;;;26.34;53.96;99717.16;5066082;28;20115;-82
2022/06/05 07:26:30;;;;;;;4.40;2.00;;;;;;;26.34;53.56;99717.16;5061067;28;20036;-83
2022/06/05 07:28:56;;;;;;;5.05;2.50;;;;;;;26.35;53.93;99721.53;5060576;28;20028;-81
2022/06/05 07:31:23;;;;;;;3.20;2.10;;;;;;;26.35;53.67;99717.00;5060611;28;20070;-80
2022/06/05 07:33:49;;;;;;;4.53;1.90;;;;;;;26.36;53.67;99723.22;5060590;28;20056;-82
2022/06/05 07:36:17;;;;;;;4.43;2.40;;;;;;;26.36;53.57;99720.53;5061446;28;20032;-81
2022/06/05 07:38:43;;;;;;;3.35;1.80;;;;;;;26.36;53.84;99717.88;5061633;28;20039;-80
2022/06/05 07:41:22;;;;;;;3.97;2.15;;;;;;;26.37;53.92;99724.91;5078352;28;20099;-81
2022/06/05 07:43:48;;;;;;;4.60;2.20;;;;;;;26.36;53.76;99729.44;5078238;28;20024;-81
2022/06/05 07:46:14;;;;;;;3.55;2.15;;;;;;;26.36;53.61;99723.22;5060215;28;20457;-80
2022/06/05 07:48:41;;;;;;;4.65;2.08;;;;;;;26.36;53.56;99724.06;5078058;28;20108;-80
2022/06/05 07:56:38;;;;;;;3.33;2.20;;;;;;;26.37;53.56;99735.63;5078639;28;20056;-80
2022/06/05 07:59:03;;;;;;;3.10;1.83;;;;;;;26.37;53.44;99731.13;5060549;28;20051;-80
2022/06/05 08:01:29;;;;;;;4.40;2.00;;;;;;;26.38;53.10;99729.28;5060503;28;20025;-80
2022/06/05 08:03:55;;;;;;;4.40;2.03;;;;;;;26.40;53.32;99735.38;5059692;28;20064;-81
2022/06/05 08:06:21;;;;;;;3.15;2.10;;;;;;;26.38;53.58;99734.63;5062917;28;20067;-81
2022/06/05 08:08:46;;;;;;;4.20;1.88;;;;;;;26.38;53.25;99737.31;5061708;28;20024;-81
2022/06/05 08:11:12;;;;;;;4.65;2.08;;;;;;;26.37;53.54;99738.28;5059891;28;20035;-81
2022/06/05 08:13:38;;;;;;;3.78;2.30;;;;;;;26.36;53.36;99736.59;5078485;28;20055;-82
2022/06/05 08:16:04;;;;;;;3.50;1.95;;;;;;;26.36;53.43;99734.78;5061371;28;20074;-82
2022/06/05 08:18:29;;;;;;;3.15;1.80;;;;;;;26.37;53.32;99735.63;5061593;28;20031;-82
2022/06/05 08:20:55;;;;;;;3.78;2.00;;;;;;;26.37;53.25;99735.63;5079906;28;20035;-83
2022/06/05 08:23:22;;;;;;;4.00;2.13;;;;;;;26.39;53.29;99739.03;5062367;28;20454;-81
2022/06/05 08:25:48;;;;;;;3.88;2.10;;;;;;;26.37;53.45;99739.16;5063556;28;20401;-85
2022/06/05 08:28:14;;;;;;;5.15;2.20;;;;;;;26.37;53.11;99740.97;5071378;28;20131;-83
2022/06/05 08:30:41;;;;;;;3.75;1.70;;;;;;;26.35;53.55;99743.75;5069809;28;20100;-84
2022/06/05 08:33:08;;;;;;;4.40;2.28;;;;;;;26.37;53.07;99749.00;5066465;28;20127;-83
2022/06/05 08:35:34;;;;;;;3.33;1.80;;;;;;;26.37;53.14;99751.66;5066998;28;20120;-86
2022/06/05 08:43:52;;;;;;;3.95;2.22;;;;;;;26.37;53.35;99760.56;5081965;28;20043;-81
2022/06/05 08:46:26;;;;;;;3.17;1.92;;;;;;;26.38;52.97;99750.69;5059066;28;20036;-81
2022/06/05 08:49:21;;;;;;;4.50;1.95;;;;;;;26.37;53.26;99762.38;5061061;28;20117;-81
2022/06/05 08:51:55;;;;;;;4.20;2.08;;;;;;;26.38;53.39;99758.72;5076607;28;20496;-82
2022/06/05 08:54:46;;;;;;;3.92;2.28;;;;;;;26.38;53.25;99759.56;5076940;28;20093;-81
2022/06/05 08:57:24;;;;;;;3.92;2.60;;;;;;;26.37;53.11;99760.56;5077041;28;20032;-81
2022/06/05 09:00:14;;;;;;;3.75;2.40;;;;;;;26.38;53.16;99753.34;5061533;28;20020;-83
2022/06/05 09:03:02;;;;;;;4.95;2.35;;;;;;;26.38;52.85;99753.34;5076369;28;20126;-80
2022/06/05 09:05:40;;;;;;;3.63;2.35;;;;;;;26.39;52.94;99755.09;5058875;28;20433;-82
2022/06/05 09:08:15;;;;;;;4.53;2.35;;;;;;;26.39;53.10;99755.09;5078153;28;20485;-83
2022/06/05 09:10:51;;;;;;;3.70;2.20;;;;;;;26.42;52.63;99762.03;5058548;28;20385;-82
2022/06/05 09:13:35;;;;;;;4.40;2.38;;;;;;;26.42;52.95;99760.19;5060335;28;20432;-82
2022/06/05 09:16:05;;;;;;;4.38;1.90;;;;;;;26.42;52.86;99760.19;5058757;28;20381;-82
2022/06/05 09:18:36;;;;;;;4.20;2.13;;;;;;;26.45;52.60;99767.13;5076301;28;20075;-80
2022/06/05 09:21:11;;;;;;;3.22;2.10;;;;;;;26.44;52.71;99762.75;5076567;28;20028;-82
2022/06/05 09:23:40;;;;;;;5.13;2.10;;;;;;;26.45;52.70;99764.44;5076147;28;20039;-82
2022/06/05 09:26:12;;;;;;;4.47;2.50;;;;;;;26.45;52.50;99759.94;5076119;28;20024;-81
2022/06/05 09:28:56;;;;;;;4.75;2.10;;;;;;;26.47;52.71;99767.84;5058040;28;20039;-82
2022/06/05 09:31:25;;;;;;;3.35;2.10;;;;;;;26.46;52.59;99777.69;5058847;28;20073;-82
2022/06/05 09:33:54;;;;;;;5.15;2.67;;;;;;;26.47;52.79;99776.72;5059366;28;20028;-80
2022/06/05 09:36:23;;;;;;;4.57;2.22;;;;;;;26.48;52.54;99775.75;5058772;28;20029;-81
2022/06/05 09:38:58;;;;;;;5.70;2.45;;;;;;;26.49;52.71;99776.59;5059107;28;20028;-82
2022/06/05 09:42:11;;;;;;;4.50;2.47;;;;;;;26.48;52.45;99780.25;5059147;28;20381;-80
2022/06/05 09:44:43;;;;;;;4.65;2.08;;;;;;;26.48;52.74;99781.09;5040418;28;20370;-81
2022/06/05 09:47:18;;;;;;;2.83;2.08;;;;;;;26.50;52.66;99784.53;5058399;28;20024;-80
2022/06/05 09:49:51;;;;;;;5.05;2.45;;;;;;;26.52;52.41;99785.22;5058445;28;20370;-80
2022/06/05 09:52:26;;;;;;;4.50;2.47;;;;;;;26.51;52.28;99791.56;5076785;28;20028;-80
2022/06/05 09:54:57;;;;;;;3.90;2.57;;;;;;;26.53;52.51;99786.06;5059022;28;20028;-80
2022/06/05 10:00:53;;;;;;;3.92;2.10;;;;;;;26.56;52.18;99793.88;5077348;28;20103;-81
2022/06/05 10:03:24;;;;;;;4.85;2.28;;;;;;;26.57;52.04;99792.88;5056523;28;20055;-79
2022/06/05 10:06:11;;;;;;;4.43;2.10;;;;;;;26.57;52.01;99795.56;5058970;28;20111;-81
2022/06/05 10:08:55;;;;;;;4.35;2.20;;;;;;;26.60;52.18;99797.16;5077197;28;20358;-80
2022/06/05 10:11:33;;;;;;;5.60;2.42;;;;;;;26.61;52.06;99801.53;5077384;28;20020;-83
2022/06/05 10:14:25;;;;;;;4.40;2.65;;;;;;;26.63;52.17;99794.25;5059779;28;20024;-81
2022/06/05 10:17:05;;;;;;;4.05;2.15;;;;;;;26.61;51.96;99802.38;5060828;28;20024;-81
2022/06/05 10:19:46;;;;;;;4.45;2.17;;;;;;;26.63;51.76;99805.78;5060645;28;20024;-80
2022/06/05 10:22:30;;;;;;;3.25;2.20;;;;;;;26.65;51.72;99802.97;5060029;28;20446;-81
2022/06/05 10:25:14;;;;;;;3.75;2.17;;;;;;;26.66;51.65;99799.31;5077656;28;20515;-80
2022/06/05 10:27:50;;;;;;;3.45;2.22;;;;;;;26.68;51.85;99805.41;5077617;28;20029;-83
2022/06/05 10:30:19;;;;;;;3.10;2.10;;;;;;;26.68;51.58;99808.06;5060178;28;20116;-80
2022/06/05 10:33:00;;;;;;;4.25;2.17;;;;;;;26.68;51.85;99806.25;5060169;28;20032;-80
2022/06/05 10:35:44;;;;;;;3.30;2.13;;;;;;;26.69;51.94;99804.44;5061635;28;20021;-81
2022/06/05 10:38:33;;;;;;;4.22;2.20;;;;;;;26.70;51.84;99798.13;5057212;28;20055;-82
2022/06/05 10:41:13;;;;;;;3.47;1.90;;;;;;;26.69;51.42;99804.44;5057016;28;20024;-80
2022/06/05 10:43:39;;;;;;;3.05;2.28;;;;;;;26.70;51.51;99799.94;5057416;28;20369;-81
2022/06/05 10:46:18;;;;;;;4.95;2.15;;;;;;;26.72;51.59;99808.72;5059301;28;20024;-83
2022/06/05 10:48:55;;;;;;;4.13;2.28;;;;;;;26.73;51.39;99799.69;5081926;28;20378;-82
2022/06/05 10:51:33;;;;;;;5.90;2.45;;;;;;;26.71;51.67;99791.78;5063083;28;20028;-82
2022/06/05 10:54:17;;;;;;;3.78;2.25;;;;;;;26.74;51.42;99801.41;5080992;28;20382;-83
2022/06/05 10:57:12;;;;;;;3.45;2.20;;;;;;;26.77;51.40;99793.97;5081441;28;20104;-83
2022/06/05 11:00:04;;;;;;;3.58;2.20;;;;;;;26.77;51.51;99791.28;5057181;28;20127;-83
2022/06/05 11:03:00;;;;;;;3.28;1.92;;;;;;;26.76;51.61;99786.91;5064486;28;20044;-83
2022/06/05 11:05:44;;;;;;;3.33;2.15;;;;;;;26.78;51.48;99795.66;5063847;28;20039;-82
2022/06/05 11:08:36;;;;;;;4.00;2.20;;;;;;;26.80;51.43;99793.72;5058334;28;20032;-80
2022/06/05 11:14:07;;;;;;;4.55;2.42;;;;;;;26.83;51.42;99789.97;5075600;28;20044;-80
2022/06/05 11:16:41;;;;;;;3.13;2.22;;;;;;;26.81;51.05;99790.06;5076453;28;20481;-83
2022/06/05 11:19:27;;;;;;;5.35;2.65;;;;;;;26.84;51.27;99788.13;5075206;28;20031;-81
2022/06/05 11:21:55;;;;;;;3.20;2.40;;;;;;;26.84;51.26;99793.47;5019320;28;20044;-80
2022/06/05 11:24:26;;;;;;;3.95;2.47;;;;;;;26.86;50.89;99791.50;5058185;28;20166;-80
2022/06/05 11:27:07;;;;;;;4.82;2.10;;;;;;;26.86;51.00;99792.38;5057630;28;20059;-80
2022/06/05 11:29:39;;;;;;;3.50;2.08;;;;;;;26.87;51.12;99790.56;5056703;28;20085;-81
2022/06/05 11:32:26;;;;;;;3.60;2.08;;;;;;;26.86;51.32;99788.84;5074419;28;20029;-82
2022/06/05 11:35:00;;;;;;;;;;;;;;;26.88;51.12;99786.91;5074753;28;20035;-80
2022/06/05 11:37:29;;;;;;;3.70;2.10;;;;;;;26.88;51.02;99792.25;5056778;28;19908;-81
2022/06/05 11:40:20;;;;;;;3.38;2.10;;;;;;;26.87;51.18;99788.72;5056621;28;20067;-81
2022/06/05 11:43:10;;;;;;;4.03;2.38;;;;;;;26.88;50.92;99781.53;5057136;28;20531;-82
2022/06/05 11:46:09;;;;;;;4.32;2.20;;;;;;;26.90;50.88;99780.44;5057405;28;20059;-81
2022/06/05 11:48:54;;;;;;;5.10;2.40;;;;;;;26.89;50.92;99777.88;5060362;28;20021;-80
2022/06/05 11:51:26;;;;;;;3.03;2.00;;;;;;;26.91;50.80;99786.63;5060668;28;20040;-81
2022/06/05 11:54:08;;;;;;;3.40;2.13;;;;;;;26.90;50.99;99775.09;5078692;28;20024;-80
2022/06/05 11:56:52;;;;;;;4.78;2.38;;;;;;;26.92;50.73;99773.16;5078123;28;20040;-80
2022/06/05 11:59:32;;;;;;;3.75;2.03;;;;;;;26.93;50.86;99784.72;5077919;28;20024;-82
2022/06/05 12:02:22;;;;;;;3.50;2.47;;;;;;;26.94;51.07;99787.25;5057378;28;20055;-79
2022/06/05 12:05:17;;;;;;;4.28;2.30;;;;;;;26.96;50.70;99784.47;5039782;28;20370;-81
2022/06/05 12:07:46;;;;;;;3.83;2.50;;;;;;;26.98;50.64;99784.34;5039716;28;20028;-80
2022/06/05 12:10:24;;;;;;;3.88;2.25;;;;;;;26.99;50.90;99778.00;5039977;28;20025;-82
2022/06/05 12:13:19;;;;;;;2.80;2.28;;;;;;;26.99;50.55;99773.53;5060278;28;20396;-83
2022/06/05 12:15:51;;;;;;;4.13;2.60;;;;;;;27.02;50.74;99767.91;5039834;28;20016;-82
2022/06/05 12:18:25;;;;;;;4.43;2.50;;;;;;;27.03;50.53;99774.94;5057219;28;20064;-80
2022/06/05 12:20:53;;;;;;;4.13;2.25;;;;;;;27.03;50.69;99774.94;5057126;28;20025;-82
2022/06/05 12:23:34;;;;;;;3.60;2.33;;;;;;;27.04;50.72;99775.81;5057412;28;20104;-80